Architecture
건축 Architecture



Calculator No Calculator Title Uploader Date View Book Mark
1111539  □ 화씨(℉)온도를 섭씨(℃)온도로 변환하기[0] m3d29 2006-07-16 3284 로그인 login
1111538  □ 섭씨(℃)온도를 화씨(℉)온도로 변환하기[0] m3d29 2006-07-16 2393 로그인 login
1111531  □ 비열(specific heat)[0] m3d29 2006-07-15 2019 로그인 login
1111494  □ 혼합액의 % 농도[0] m3d29 2006-04-25 2846 로그인 login
1111493  □ 오토웍 위에서 걷기(걸리는 시간 구하기)[0] m3d29 2006-04-25 1186 로그인 login
1111491  □ 가속도 구하기(초기속도, 나중속도, 걸린시간)[0] m3d29 2006-04-24 3319 로그인 login
1111490  □ 물위에 떠있는 물체의 부피 계산하기[0] m3d29 2006-04-23 2373 로그인 login
1111489  □ 주기와 진동수와의 관계(주기 구하기)[0] m3d29 2006-04-23 2184 로그인 login
1111488  □ 주기와 진동수와의 관계(진동수 구하기)[0] m3d29 2006-04-23 2819 로그인 login
1111482  □ 등가속도 운동, 일정한 힘을 가했을 때, 일정 거리 이동 후의 속도[0] m3d29 2006-04-09 1525 로그인 login
1111474  □ 서로 다른 속력으로 왕복하였을 경우의 평균속력[0] m3d29 2009-03-21 3289 로그인 login
1111406  □ 상대습도 계산하기[0] m3d29 2006-01-29 8402 로그인 login
1111405  □ 운동에너지(kinetic energy)[0] m3d29 2006-01-28 2439 로그인 login
1111404  □ 위치에너지(potential energy)[0] m3d29 2006-05-01 2084 로그인 login
1111403  □ 경사면을 따라 미끄러진 물체의 속력[0] 2011-11-27 2037 로그인 login
1111402  □ 인공위성의 주기 계산하기[0] m3d29 2006-01-28 3481 로그인 login
1111401  □ 가속도 구하기(초기속도, 나중속도, 이동거리 이용)[0] m3d29 2006-01-28 3601 로그인 login
1111393  □ 변압기(Trans)의 2차 전류 계산하기[0] m3d29 2006-01-22 5181 로그인 login
1111392  □ 변압기(Trans)의 2차 전압 계산하기[0] m3d29 2006-01-22 4778 로그인 login
1111391  □ 망원경의 배율 구하는 공식[0] m3d29 2006-01-22 2389 로그인 login
 1   2   3   4   5   6   7   8   9   10   11   12   13   14   15   16   17   18   19   20   21   22   23   24   25   26   27   28   29   30